Cap Isabel — VRGA2 — position and weather

sailwx.info

Track history (hours):
 
Tides and Currents Weather Stations Pressure Air Temp Water Temp Dewpoint Dewpoint Depression Visibility Wind Speed Wind Dir Waves Ship Positions

Cap Isabel

Last reported at 2015-Feb-21 23:12 UTC. Time now 2015-Mar-02 15:08 UTC.
Position N 26°41' W 079°53'.
Warning: this ship's position is 8 days out of date.

Length 264 m; draft 10.1 m.

Type: Ship (hazmat cat C). MMSI: 477639500.

Date/timePositionNaut miles runAvg speedWind from/ knotsBaromVisibWave heightAir tempDewpointWater temp
2015-Feb-21 23:12N 26°41' W 079°53'1320.6
2015-Feb-21 22:33N 26°55' W 079°53'  
2015-Feb-19 11:03N 37°51' W 076°10'1520.6
2015-Feb-19 10:21N 38°05' W 076°13'3920.2
2015-Feb-19 08:24N 38°43' W 076°26'1619.1
2015-Feb-19 07:33N 38°59' W 076°23'1312.6
2015-Feb-19 06:34N 39°11' W 076°28'6 5.8
2015-Feb-19 05:33N 39°15' W 076°33'0 0.0
2015-Feb-19 04:33N 39°15' W 076°33'0 0.0
2015-Feb-19 03:33N 39°15' W 076°33'0 0.0
2015-Feb-19 02:33N 39°15' W 076°33'0 0.0
2015-Feb-19 01:24N 39°15' W 076°33'0 0.0
2015-Feb-19 00:30N 39°15' W 076°33'0 0.0
2015-Feb-18 23:33N 39°15' W 076°33'0 0.0
2015-Feb-18 22:33N 39°15' W 076°33'0 0.0
2015-Feb-18 21:33N 39°15' W 076°33'0 0.0
2015-Feb-18 20:30N 39°15' W 076°33'0 0.0
2015-Feb-18 19:33N 39°15' W 076°33'0 0.0
2015-Feb-18 18:33N 39°15' W 076°33'0 0.0
2015-Feb-18 17:33N 39°15' W 076°33'0 0.0
2015-Feb-18 16:33N 39°15' W 076°33'0 0.0
2015-Feb-18 15:33N 39°15' W 076°33'0 0.0
2015-Feb-18 14:33N 39°15' W 076°33'0 0.0
2015-Feb-18 13:33N 39°15' W 076°33'1 1.1
2015-Feb-18 12:33N 39°14' W 076°33'9 8.8
2015-Feb-18 11:33N 39°08' W 076°24'1514.7
2015-Feb-18 10:33N 38°54' W 076°24'6120.3
2015-Feb-18 07:33N 37°54' W 076°09'133 9.5
2015-Feb-17 17:33N 39°22' W 074°02'2121.3
2015-Feb-17 16:33N 39°43' W 073°53'5012.3
2015-Feb-17 12:27N 40°32' W 074°01'8 8.8
2015-Feb-17 11:33N 40°40' W 074°04'1 0.6
2015-Feb-17 10:28N 40°40' W 074°05'0 0.0
2015-Feb-17 09:28N 40°40' W 074°05'0 0.0
2015-Feb-17 08:28N 40°40' W 074°05'0 0.0
2015-Feb-17 07:31N 40°40' W 074°05'0 0.0
2015-Feb-17 06:28N 40°40' W 074°05'0 0.0
2015-Feb-17 05:31N 40°40' W 074°05'0 0.0
2015-Feb-17 04:31N 40°40' W 074°05'0 0.0
2015-Feb-17 03:31N 40°40' W 074°05'0 0.0
2015-Feb-17 02:28N 40°40' W 074°05'0 0.0
2015-Feb-17 01:31N 40°40' W 074°05'0 0.0
2015-Feb-17 00:28N 40°40' W 074°05'0 0.0
2015-Feb-16 23:31N 40°40' W 074°05'0 0.0
2015-Feb-16 22:31N 40°40' W 074°05'0 0.0
2015-Feb-16 21:31N 40°40' W 074°05'0 0.0
2015-Feb-16 20:31N 40°40' W 074°05'0 0.0
2015-Feb-16 19:31N 40°40' W 074°05'0 0.0
2015-Feb-16 18:31N 40°40' W 074°05'0 0.0
2015-Feb-16 17:31N 40°40' W 074°05'0 0.0
2015-Feb-16 16:31N 40°40' W 074°05'0 0.0
2015-Feb-16 15:31N 40°40' W 074°05'3 3.7
2015-Feb-16 14:33N 40°37' W 074°03'1211.4
2015-Feb-16 13:32N 40°28' W 073°53'6 6.5
2015-Feb-16 12:33N 40°24' W 073°47'86318.0
2015-Feb-14 12:28N 26°53' W 079°43'2222.8
2015-Feb-14 11:31N 26°31' W 079°47'2020.6
2015-Feb-14 10:33N 26°13' W 079°54'1111.3
2015-Feb-14 09:33N 26°05' W 080°04'3 3.0
2015-Feb-14 08:33N 26°04' W 080°07'0 0.0
2015-Feb-14 07:33N 26°04' W 080°07'0 0.0
2015-Feb-14 06:33N 26°04' W 080°07'0 0.0
2015-Feb-14 05:24N 26°04' W 080°07'0 0.0
2015-Feb-14 04:27N 26°04' W 080°07'0 0.0
2015-Feb-14 03:27N 26°04' W 080°07'0 0.0
2015-Feb-14 02:27N 26°04' W 080°07'0 0.0
2015-Feb-14 01:30N 26°04' W 080°07'0 0.0
2015-Feb-14 00:30N 26°04' W 080°07'0 0.0
2015-Feb-13 23:33N 26°04' W 080°07'5 4.9
2015-Feb-13 22:33N 26°05' W 080°02'4 3.5
2015-Feb-13 21:34N 26°02' W 080°01'1514.9
2015-Feb-13 20:33N 25°47' W 079°58'  
Track history (hours):
 
Tides and Currents Weather Stations Pressure Air Temp Water Temp Dewpoint Dewpoint Depression Visibility Wind Speed Wind Dir Waves Ship Positions

Cap Isabel

Last reported at 2015-Feb-21 23:12 UTC. Time now 2015-Mar-02 15:08 UTC.
Position N 26°41' W 079°53'.
Warning: this ship's position is 8 days out of date.

Length 264 m; draft 10.1 m.

Type: Ship (hazmat cat C). MMSI: 477639500.

Date/timePositionNaut miles runAvg speedWind from/ knotsBaromVisibWave heightAir tempDewpointWater temp
2015-Feb-21 23:12N 26°41' W 079°53'1320.6
2015-Feb-21 22:33N 26°55' W 079°53'  
2015-Feb-19 11:03N 37°51' W 076°10'1520.6
2015-Feb-19 10:21N 38°05' W 076°13'3920.2
2015-Feb-19 08:24N 38°43' W 076°26'1619.1
2015-Feb-19 07:33N 38°59' W 076°23'1312.6
2015-Feb-19 06:34N 39°11' W 076°28'6 5.8
2015-Feb-19 05:33N 39°15' W 076°33'0 0.0
2015-Feb-19 04:33N 39°15' W 076°33'0 0.0
2015-Feb-19 03:33N 39°15' W 076°33'0 0.0
2015-Feb-19 02:33N 39°15' W 076°33'0 0.0
2015-Feb-19 01:24N 39°15' W 076°33'0 0.0
2015-Feb-19 00:30N 39°15' W 076°33'0 0.0
2015-Feb-18 23:33N 39°15' W 076°33'0 0.0
2015-Feb-18 22:33N 39°15' W 076°33'0 0.0
2015-Feb-18 21:33N 39°15' W 076°33'0 0.0
2015-Feb-18 20:30N 39°15' W 076°33'0 0.0
2015-Feb-18 19:33N 39°15' W 076°33'0 0.0
2015-Feb-18 18:33N 39°15' W 076°33'0 0.0
2015-Feb-18 17:33N 39°15' W 076°33'0 0.0
2015-Feb-18 16:33N 39°15' W 076°33'0 0.0
2015-Feb-18 15:33N 39°15' W 076°33'0 0.0
2015-Feb-18 14:33N 39°15' W 076°33'0 0.0
2015-Feb-18 13:33N 39°15' W 076°33'1 1.1
2015-Feb-18 12:33N 39°14' W 076°33'9 8.8
2015-Feb-18 11:33N 39°08' W 076°24'1514.7
2015-Feb-18 10:33N 38°54' W 076°24'6120.3
2015-Feb-18 07:33N 37°54' W 076°09'133 9.5
2015-Feb-17 17:33N 39°22' W 074°02'2121.3
2015-Feb-17 16:33N 39°43' W 073°53'5012.3
2015-Feb-17 12:27N 40°32' W 074°01'8 8.8
2015-Feb-17 11:33N 40°40' W 074°04'1 0.6
2015-Feb-17 10:28N 40°40' W 074°05'0 0.0
2015-Feb-17 09:28N 40°40' W 074°05'0 0.0
2015-Feb-17 08:28N 40°40' W 074°05'0 0.0
2015-Feb-17 07:31N 40°40' W 074°05'0 0.0
2015-Feb-17 06:28N 40°40' W 074°05'0 0.0
2015-Feb-17 05:31N 40°40' W 074°05'0 0.0
2015-Feb-17 04:31N 40°40' W 074°05'0 0.0
2015-Feb-17 03:31N 40°40' W 074°05'0 0.0
2015-Feb-17 02:28N 40°40' W 074°05'0 0.0
2015-Feb-17 01:31N 40°40' W 074°05'0 0.0
2015-Feb-17 00:28N 40°40' W 074°05'0 0.0
2015-Feb-16 23:31N 40°40' W 074°05'0 0.0
2015-Feb-16 22:31N 40°40' W 074°05'0 0.0
2015-Feb-16 21:31N 40°40' W 074°05'0 0.0
2015-Feb-16 20:31N 40°40' W 074°05'0 0.0
2015-Feb-16 19:31N 40°40' W 074°05'0 0.0
2015-Feb-16 18:31N 40°40' W 074°05'0 0.0
2015-Feb-16 17:31N 40°40' W 074°05'0 0.0
2015-Feb-16 16:31N 40°40' W 074°05'0 0.0
2015-Feb-16 15:31N 40°40' W 074°05'3 3.7
2015-Feb-16 14:33N 40°37' W 074°03'1211.4
2015-Feb-16 13:32N 40°28' W 073°53'6 6.5
2015-Feb-16 12:33N 40°24' W 073°47'86318.0
2015-Feb-14 12:28N 26°53' W 079°43'2222.8
2015-Feb-14 11:31N 26°31' W 079°47'2020.6
2015-Feb-14 10:33N 26°13' W 079°54'1111.3
2015-Feb-14 09:33N 26°05' W 080°04'3 3.0
2015-Feb-14 08:33N 26°04' W 080°07'0 0.0
2015-Feb-14 07:33N 26°04' W 080°07'0 0.0
2015-Feb-14 06:33N 26°04' W 080°07'0 0.0
2015-Feb-14 05:24N 26°04' W 080°07'0 0.0
2015-Feb-14 04:27N 26°04' W 080°07'0 0.0
2015-Feb-14 03:27N 26°04' W 080°07'0 0.0
2015-Feb-14 02:27N 26°04' W 080°07'0 0.0
2015-Feb-14 01:30N 26°04' W 080°07'0 0.0
2015-Feb-14 00:30N 26°04' W 080°07'0 0.0
2015-Feb-13 23:33N 26°04' W 080°07'5 4.9
2015-Feb-13 22:33N 26°05' W 080°02'4 3.5
2015-Feb-13 21:34N 26°02' W 080°01'1514.9
2015-Feb-13 20:33N 25°47' W 079°58'  

Dump ship's entire track history